Terminal Aerodrome Forecast
Issued by NWS Mt. Holly, NJ

Home | Current Version | Previous Version | Text Only | Print | Product List | Glossary On
Versions: 1 2 3 4 5 6 7 8 9 10 11 12 13 14 15 16 17 18 19 20 21 22 23 24 25 26 27 28 29 30 31 32 33 34 35 36 37
177
FTAK31 PANC 302059 AAA
TAFABE
TAF AMD
PABE 302059Z 3021/3118 19017G24KT 3SM -RA BR BKN008 OVC025
      TEMPO 3021/3024 1SM -RA BR SCT008 BKN015
     FM310400 19008KT 5SM -RA SCT008 BKN015
     FM311400 04006KT 6SM -RA BR SCT010 OVC025=

USA.gov is the U.S. government's official web portal to all federal, state and local government web resources and services.